sensor_id;sensor_type;location;lat;lon;timestamp;pressure;altitude;pressure_sealevel;temperature;humidity
24962;BME280;12992;50.884;13.668;2023-08-06T00:01:10;96580.03;;;14.55;100.00
24962;BME280;12992;50.884;13.668;2023-08-06T00:03:35;96575.97;;;14.53;100.00
24962;BME280;12992;50.884;13.668;2023-08-06T00:06:01;96583.06;;;14.54;100.00
24962;BME280;12992;50.884;13.668;2023-08-06T00:08:26;96566.31;;;14.55;100.00
24962;BME280;12992;50.884;13.668;2023-08-06T00:10:51;96564.50;;;14.51;100.00
24962;BME280;12992;50.884;13.668;2023-08-06T00:13:17;96557.44;;;14.44;100.00
24962;BME280;12992;50.884;13.668;2023-08-06T00:15:42;96558.03;;;14.41;100.00
24962;BME280;12992;50.884;13.668;2023-08-06T00:18:07;96554.19;;;14.42;100.00
24962;BME280;12992;50.884;13.668;2023-08-06T00:20:32;96555.31;;;14.41;100.00
24962;BME280;12992;50.884;13.668;2023-08-06T00:22:58;96549.28;;;14.39;100.00
24962;BME280;12992;50.884;13.668;2023-08-06T00:25:23;96546.03;;;14.37;100.00
24962;BME280;12992;50.884;13.668;2023-08-06T00:27:48;96549.09;;;14.36;100.00
24962;BME280;12992;50.884;13.668;2023-08-06T00:30:14;96551.91;;;14.31;100.00
24962;BME280;12992;50.884;13.668;2023-08-06T00:32:39;96547.84;;;14.28;100.00
24962;BME280;12992;50.884;13.668;2023-08-06T00:35:04;96554.44;;;14.27;100.00
24962;BME280;12992;50.884;13.668;2023-08-06T00:37:29;96545.91;;;14.29;100.00
24962;BME280;12992;50.884;13.668;2023-08-06T00:39:55;96540.13;;;14.30;100.00
24962;BME280;12992;50.884;13.668;2023-08-06T00:42:20;96531.41;;;14.28;100.00
24962;BME280;12992;50.884;13.668;2023-08-06T00:44:46;96530.59;;;14.28;100.00
24962;BME280;12992;50.884;13.668;2023-08-06T00:47:11;96521.25;;;14.29;100.00
24962;BME280;12992;50.884;13.668;2023-08-06T00:49:37;96517.41;;;14.30;100.00
24962;BME280;12992;50.884;13.668;2023-08-06T00:52:03;96511.03;;;14.34;100.00
24962;BME280;12992;50.884;13.668;2023-08-06T00:54:29;96506.88;;;14.37;100.00
24962;BME280;12992;50.884;13.668;2023-08-06T00:56:55;96505.47;;;14.39;100.00
24962;BME280;12992;50.884;13.668;2023-08-06T00:59:20;96501.41;;;14.37;100.00
24962;BME280;12992;50.884;13.668;2023-08-06T01:01:45;96488.63;;;14.32;100.00
24962;BME280;12992;50.884;13.668;2023-08-06T01:04:11;96493.50;;;14.35;100.00
24962;BME280;12992;50.884;13.668;2023-08-06T01:09:41;96490.13;;;14.38;100.00
24962;BME280;12992;50.884;13.668;2023-08-06T01:11:59;96491.25;;;14.37;100.00
24962;BME280;12992;50.884;13.668;2023-08-06T01:17:07;96496.16;;;14.40;100.00
24962;BME280;12992;50.884;13.668;2023-08-06T01:19:33;96495.03;;;14.41;100.00
24962;BME280;12992;50.884;13.668;2023-08-06T01:21:58;96500.44;;;14.47;100.00
24962;BME280;12992;50.884;13.668;2023-08-06T01:24:23;96490.13;;;14.38;100.00
24962;BME280;12992;50.884;13.668;2023-08-06T01:26:53;96484.78;;;14.33;100.00
24962;BME280;12992;50.884;13.668;2023-08-06T01:31:46;96489.00;;;14.26;100.00
24962;BME280;12992;50.884;13.668;2023-08-06T01:34:17;96479.97;;;14.25;100.00
24962;BME280;12992;50.884;13.668;2023-08-06T01:36:43;96485.53;;;14.20;100.00
24962;BME280;12992;50.884;13.668;2023-08-06T01:39:09;96477.91;;;14.17;100.00
24962;BME280;12992;50.884;13.668;2023-08-06T01:41:34;96466.06;;;14.22;100.00
24962;BME280;12992;50.884;13.668;2023-08-06T01:43:59;96464.34;;;14.26;100.00
24962;BME280;12992;50.884;13.668;2023-08-06T01:46:25;96463.53;;;14.25;100.00
24962;BME280;12992;50.884;13.668;2023-08-06T01:48:50;96462.59;;;14.16;100.00
24962;BME280;12992;50.884;13.668;2023-08-06T01:51:15;96465.25;;;14.21;100.00
24962;BME280;12992;50.884;13.668;2023-08-06T01:53:40;96464.97;;;14.23;100.00
24962;BME280;12992;50.884;13.668;2023-08-06T01:56:06;96467.91;;;14.26;100.00
24962;BME280;12992;50.884;13.668;2023-08-06T01:58:31;96465.78;;;14.23;100.00
24962;BME280;12992;50.884;13.668;2023-08-06T02:00:56;96464.44;;;14.21;100.00
24962;BME280;12992;50.884;13.668;2023-08-06T02:03:23;96460.06;;;14.20;100.00
24962;BME280;12992;50.884;13.668;2023-08-06T02:05:48;96466.59;;;14.24;100.00
24962;BME280;12992;50.884;13.668;2023-08-06T02:08:13;96462.44;;;14.26;100.00
24962;BME280;12992;50.884;13.668;2023-08-06T02:10:39;96462.84;;;14.33;100.00
24962;BME280;12992;50.884;13.668;2023-08-06T02:13:06;96457.81;;;14.40;100.00
24962;BME280;12992;50.884;13.668;2023-08-06T02:15:31;96458.00;;;14.44;100.00
24962;BME280;12992;50.884;13.668;2023-08-06T02:17:57;96450.91;;;14.43;100.00
24962;BME280;12992;50.884;13.668;2023-08-06T02:20:23;96450.91;;;14.43;100.00
24962;BME280;12992;50.884;13.668;2023-08-06T02:22:48;96444.63;;;14.42;100.00
24962;BME280;12992;50.884;13.668;2023-08-06T02:25:13;96443.56;;;14.38;100.00
24962;BME280;12992;50.884;13.668;2023-08-06T02:27:38;96451.28;;;14.36;100.00
24962;BME280;12992;50.884;13.668;2023-08-06T02:30:05;96452.91;;;14.37;100.00
24962;BME280;12992;50.884;13.668;2023-08-06T02:32:31;96442.75;;;14.38;100.00
24962;BME280;12992;50.884;13.668;2023-08-06T02:34:59;96439.13;;;14.42;100.00
24962;BME280;12992;50.884;13.668;2023-08-06T02:37:24;96450.09;;;14.42;100.00
24962;BME280;12992;50.884;13.668;2023-08-06T02:39:49;96448.91;;;14.49;100.00
24962;BME280;12992;50.884;13.668;2023-08-06T02:42:15;96448.09;;;14.48;100.00
24962;BME280;12992;50.884;13.668;2023-08-06T02:44:40;96446.16;;;14.49;100.00
24962;BME280;12992;50.884;13.668;2023-08-06T02:47:05;96441.72;;;14.53;100.00
24962;BME280;12992;50.884;13.668;2023-08-06T02:49:31;96443.41;;;14.49;100.00
24962;BME280;12992;50.884;13.668;2023-08-06T02:51:56;96436.91;;;14.44;100.00
24962;BME280;12992;50.884;13.668;2023-08-06T02:54:21;96434.84;;;14.36;100.00
24962;BME280;12992;50.884;13.668;2023-08-06T02:56:47;96431.63;;;14.34;100.00
24962;BME280;12992;50.884;13.668;2023-08-06T02:59:25;96423.72;;;14.33;100.00
24962;BME280;12992;50.884;13.668;2023-08-06T03:02:03;96420.56;;;14.39;100.00
24962;BME280;12992;50.884;13.668;2023-08-06T03:04:41;96420.28;;;14.41;100.00
24962;BME280;12992;50.884;13.668;2023-08-06T03:07:08;96412.56;;;14.43;100.00
24962;BME280;12992;50.884;13.668;2023-08-06T03:09:41;96403.63;;;14.37;100.00
24962;BME280;12992;50.884;13.668;2023-08-06T03:12:07;96405.13;;;14.30;100.00
24962;BME280;12992;50.884;13.668;2023-08-06T03:14:33;96410.41;;;14.26;100.00
24962;BME280;12992;50.884;13.668;2023-08-06T03:16:58;96398.31;;;14.27;100.00
24962;BME280;12992;50.884;13.668;2023-08-06T03:19:23;96395.09;;;14.25;100.00
24962;BME280;12992;50.884;13.668;2023-08-06T03:21:49;96396.72;;;14.26;100.00
24962;BME280;12992;50.884;13.668;2023-08-06T03:24:15;96396.63;;;14.31;100.00
24962;BME280;12992;50.884;13.668;2023-08-06T03:26:41;96405.22;;;14.38;100.00
24962;BME280;12992;50.884;13.668;2023-08-06T03:29:09;96393.97;;;14.40;100.00
24962;BME280;12992;50.884;13.668;2023-08-06T03:31:34;96390.34;;;14.44;100.00
24962;BME280;12992;50.884;13.668;2023-08-06T03:34:00;96378.97;;;14.37;100.00
24962;BME280;12992;50.884;13.668;2023-08-06T03:36:28;96375.22;;;14.33;100.00
24962;BME280;12992;50.884;13.668;2023-08-06T03:38:53;96380.19;;;14.31;100.00
24962;BME280;12992;50.884;13.668;2023-08-06T03:41:19;96374.19;;;14.29;100.00
24962;BME280;12992;50.884;13.668;2023-08-06T03:43:44;96367.09;;;14.28;100.00
24962;BME280;12992;50.884;13.668;2023-08-06T03:46:16;96368.69;;;14.29;100.00
24962;BME280;12992;50.884;13.668;2023-08-06T03:48:42;96367.31;;;14.32;100.00
24962;BME280;12992;50.884;13.668;2023-08-06T03:51:08;96361.31;;;14.30;100.00
24962;BME280;12992;50.884;13.668;2023-08-06T03:53:33;96352.88;;;14.26;100.00
24962;BME280;12992;50.884;13.668;2023-08-06T03:55:59;96359.19;;;14.27;100.00
24962;BME280;12992;50.884;13.668;2023-08-06T03:58:25;96354.31;;;14.24;100.00
24962;BME280;12992;50.884;13.668;2023-08-06T04:00:58;96354.50;;;14.27;100.00
24962;BME280;12992;50.884;13.668;2023-08-06T04:03:24;96344.69;;;14.26;100.00
24962;BME280;12992;50.884;13.668;2023-08-06T04:05:49;96345.28;;;14.23;100.00
24962;BME280;12992;50.884;13.668;2023-08-06T04:08:14;96341.44;;;14.24;100.00
24962;BME280;12992;50.884;13.668;2023-08-06T04:10:40;96339.50;;;14.25;100.00
24962;BME280;12992;50.884;13.668;2023-08-06T04:13:05;96331.78;;;14.27;100.00
24962;BME280;12992;50.884;13.668;2023-08-06T04:15:30;96330.97;;;14.26;100.00
24962;BME280;12992;50.884;13.668;2023-08-06T04:17:58;96333.41;;;14.28;100.00
24962;BME280;12992;50.884;13.668;2023-08-06T04:20:24;96331.16;;;14.30;100.00
24962;BME280;12992;50.884;13.668;2023-08-06T04:22:49;96325.00;;;14.24;100.00
24962;BME280;12992;50.884;13.668;2023-08-06T04:25:14;96325.31;;;14.23;100.00
24962;BME280;12992;50.884;13.668;2023-08-06T04:27:41;96323.66;;;14.22;100.00
24962;BME280;12992;50.884;13.668;2023-08-06T04:30:07;96311.41;;;14.19;100.00
24962;BME280;12992;50.884;13.668;2023-08-06T04:32:34;96306.84;;;14.14;100.00
24962;BME280;12992;50.884;13.668;2023-08-06T04:35:00;96305.50;;;14.12;100.00
24962;BME280;12992;50.884;13.668;2023-08-06T04:37:26;96305.00;;;14.10;100.00
24962;BME280;12992;50.884;13.668;2023-08-06T04:39:51;96304.91;;;14.15;100.00
24962;BME280;12992;50.884;13.668;2023-08-06T04:42:17;96308.16;;;14.17;100.00
24962;BME280;12992;50.884;13.668;2023-08-06T04:44:43;96308.16;;;14.17;100.00
24962;BME280;12992;50.884;13.668;2023-08-06T04:47:08;96303.19;;;14.19;100.00
24962;BME280;12992;50.884;13.668;2023-08-06T04:49:33;96304.41;;;14.27;100.00
24962;BME280;12992;50.884;13.668;2023-08-06T04:51:59;96299.75;;;14.27;100.00
24962;BME280;12992;50.884;13.668;2023-08-06T04:54:24;96298.63;;;14.28;100.00
24962;BME280;12992;50.884;13.668;2023-08-06T04:56:49;96290.22;;;14.25;100.00
24962;BME280;12992;50.884;13.668;2023-08-06T04:59:14;96292.66;;;14.26;100.00
24962;BME280;12992;50.884;13.668;2023-08-06T05:01:40;96288.28;;;14.25;100.00
24962;BME280;12992;50.884;13.668;2023-08-06T05:04:05;96295.06;;;14.28;100.00
24962;BME280;12992;50.884;13.668;2023-08-06T05:06:30;96286.78;;;14.33;100.00
24962;BME280;12992;50.884;13.668;2023-08-06T05:08:55;96284.34;;;14.31;100.00
24962;BME280;12992;50.884;13.668;2023-08-06T05:11:21;96278.34;;;14.29;100.00
24962;BME280;12992;50.884;13.668;2023-08-06T05:13:46;96285.97;;;14.32;100.00
24962;BME280;12992;50.884;13.668;2023-08-06T05:16:11;96284.22;;;14.36;100.00
24962;BME280;12992;50.884;13.668;2023-08-06T05:18:36;96279.25;;;14.38;100.00
24962;BME280;12992;50.884;13.668;2023-08-06T05:21:02;96287.16;;;14.40;100.00
24962;BME280;12992;50.884;13.668;2023-08-06T05:23:28;96280.25;;;14.42;100.00
24962;BME280;12992;50.884;13.668;2023-08-06T05:25:53;96273.56;;;14.49;100.00
24962;BME280;12992;50.884;13.668;2023-08-06T05:28:18;96274.59;;;14.53;100.00
24962;BME280;12992;50.884;13.668;2023-08-06T05:30:43;96275.31;;;14.58;100.00
24962;BME280;12992;50.884;13.668;2023-08-06T05:33:09;96273.56;;;14.62;100.00
24962;BME280;12992;50.884;13.668;2023-08-06T05:35:34;96271.81;;;14.66;100.00
24962;BME280;12992;50.884;13.668;2023-08-06T05:37:59;96272.03;;;14.70;100.00
24962;BME280;12992;50.884;13.668;2023-08-06T05:40:24;96263.19;;;14.73;100.00
24962;BME280;12992;50.884;13.668;2023-08-06T05:42:51;96269.69;;;14.77;100.00
24962;BME280;12992;50.884;13.668;2023-08-06T05:45:16;96267.63;;;14.83;100.00
24962;BME280;12992;50.884;13.668;2023-08-06T05:47:41;96263.97;;;14.87;100.00
24962;BME280;12992;50.884;13.668;2023-08-06T05:50:07;96261.72;;;14.89;100.00
24962;BME280;12992;50.884;13.668;2023-08-06T05:52:32;96272.19;;;14.87;100.00
24962;BME280;12992;50.884;13.668;2023-08-06T05:54:57;96263.66;;;14.89;100.00
24962;BME280;12992;50.884;13.668;2023-08-06T05:57:23;96268.81;;;14.90;100.00
24962;BME280;12992;50.884;13.668;2023-08-06T05:59:48;96277.69;;;14.87;100.00
24962;BME280;12992;50.884;13.668;2023-08-06T06:02:13;96267.53;;;14.88;100.00
24962;BME280;12992;50.884;13.668;2023-08-06T06:04:40;96266.22;;;14.85;100.00
24962;BME280;12992;50.884;13.668;2023-08-06T06:07:05;96256.25;;;14.89;100.00
24962;BME280;12992;50.884;13.668;2023-08-06T06:09:31;96259.00;;;14.89;100.00
24962;BME280;12992;50.884;13.668;2023-08-06T06:11:56;96271.69;;;14.85;100.00
24962;BME280;12992;50.884;13.668;2023-08-06T06:14:21;96265.59;;;14.88;100.00
24962;BME280;12992;50.884;13.668;2023-08-06T06:16:46;96262.22;;;14.91;100.00
24962;BME280;12992;50.884;13.668;2023-08-06T06:19:12;96261.09;;;14.92;100.00
24962;BME280;12992;50.884;13.668;2023-08-06T06:21:37;96258.50;;;14.87;100.00
24962;BME280;12992;50.884;13.668;2023-08-06T06:24:03;96258.09;;;14.80;100.00
24962;BME280;12992;50.884;13.668;2023-08-06T06:26:29;96257.47;;;14.83;100.00
24962;BME280;12992;50.884;13.668;2023-08-06T06:28:54;96254.13;;;14.86;100.00
24962;BME280;12992;50.884;13.668;2023-08-06T06:31:20;96259.47;;;14.91;100.00
24962;BME280;12992;50.884;13.668;2023-08-06T06:33:45;96258.34;;;14.92;100.00
24962;BME280;12992;50.884;13.668;2023-08-06T06:36:10;96259.47;;;14.91;100.00
24962;BME280;12992;50.884;13.668;2023-08-06T06:38:36;96261.09;;;14.92;100.00
24962;BME280;12992;50.884;13.668;2023-08-06T06:41:01;96256.25;;;14.89;100.00
24962;BME280;12992;50.884;13.668;2023-08-06T06:43:28;96262.03;;;14.88;100.00
24962;BME280;12992;50.884;13.668;2023-08-06T06:45:55;96260.91;;;14.89;100.00
24962;BME280;12992;50.884;13.668;2023-08-06T06:48:21;96259.47;;;14.91;100.00
24962;BME280;12992;50.884;13.668;2023-08-06T06:50:47;96261.56;;;14.86;100.00
24962;BME280;12992;50.884;13.668;2023-08-06T06:53:12;96269.16;;;14.89;100.00
24962;BME280;12992;50.884;13.668;2023-08-06T06:55:37;96267.22;;;14.89;100.00
24962;BME280;12992;50.884;13.668;2023-08-06T06:58:02;96269.84;;;14.94;100.00
24962;BME280;12992;50.884;13.668;2023-08-06T07:00:28;96267.59;;;14.96;100.00
24962;BME280;12992;50.884;13.668;2023-08-06T07:02:53;96282.63;;;14.99;100.00
24962;BME280;12992;50.884;13.668;2023-08-06T07:05:18;96277.75;;;14.96;100.00
24962;BME280;12992;50.884;13.668;2023-08-06T07:07:43;96290.75;;;14.90;100.00
24962;BME280;12992;50.884;13.668;2023-08-06T07:10:09;96283.66;;;14.89;100.00
24962;BME280;12992;50.884;13.668;2023-08-06T07:12:34;96283.03;;;14.92;100.00
24962;BME280;12992;50.884;13.668;2023-08-06T07:15:02;96293.50;;;14.90;100.00
24962;BME280;12992;50.884;13.668;2023-08-06T07:17:27;96284.78;;;14.88;100.00
24962;BME280;12992;50.884;13.668;2023-08-06T07:19:53;96287.59;;;14.97;100.00
24962;BME280;12992;50.884;13.668;2023-08-06T07:22:18;96291.16;;;14.97;100.00
24962;BME280;12992;50.884;13.668;2023-08-06T07:24:43;96291.66;;;14.99;100.00
24962;BME280;12992;50.884;13.668;2023-08-06T07:27:08;96278.44;;;15.01;100.00
24962;BME280;12992;50.884;13.668;2023-08-06T07:29:33;96279.75;;;15.04;100.00
24962;BME280;12992;50.884;13.668;2023-08-06T07:34:27;96276.63;;;14.97;100.00
24962;BME280;12992;50.884;13.668;2023-08-06T07:36:52;96270.03;;;14.98;100.00
24962;BME280;12992;50.884;13.668;2023-08-06T07:39:18;96275.69;;;15.01;100.00
24962;BME280;12992;50.884;13.668;2023-08-06T07:41:43;96268.81;;;15.04;100.00
24962;BME280;12992;50.884;13.668;2023-08-06T07:44:08;96255.91;;;15.05;100.00
24962;BME280;12992;50.884;13.668;2023-08-06T07:46:33;96264.94;;;15.05;100.00
24962;BME280;12992;50.884;13.668;2023-08-06T07:48:59;96259.31;;;15.10;100.00
24962;BME280;12992;50.884;13.668;2023-08-06T07:51:24;96266.72;;;15.10;100.00
24962;BME280;12992;50.884;13.668;2023-08-06T07:53:49;96272.47;;;14.99;100.00
24962;BME280;12992;50.884;13.668;2023-08-06T07:56:14;96267.22;;;14.89;100.00
24962;BME280;12992;50.884;13.668;2023-08-06T07:58:39;96270.09;;;14.84;100.00
24962;BME280;12992;50.884;13.668;2023-08-06T08:01:06;96271.50;;;14.82;100.00
24962;BME280;12992;50.884;13.668;2023-08-06T08:03:31;96276.97;;;14.82;100.00
24962;BME280;12992;50.884;13.668;2023-08-06T08:05:56;96260.75;;;14.85;100.00
24962;BME280;12992;50.884;13.668;2023-08-06T08:08:22;96263.47;;;14.85;100.00
24962;BME280;12992;50.884;13.668;2023-08-06T08:10:48;96264.06;;;14.82;100.00
24962;BME280;12992;50.884;13.668;2023-08-06T08:13:13;96256.88;;;14.86;100.00
24962;BME280;12992;50.884;13.668;2023-08-06T08:15:38;96256.44;;;14.93;100.00
24962;BME280;12992;50.884;13.668;2023-08-06T08:18:03;96251.00;;;15.01;100.00
24962;BME280;12992;50.884;13.668;2023-08-06T08:20:29;96248.91;;;14.98;100.00
24962;BME280;12992;50.884;13.668;2023-08-06T08:22:57;96251.25;;;14.91;100.00
24962;BME280;12992;50.884;13.668;2023-08-06T08:25:22;96247.59;;;14.96;100.00
24962;BME280;12992;50.884;13.668;2023-08-06T08:27:47;96241.31;;;14.95;100.00
24962;BME280;12992;50.884;13.668;2023-08-06T08:30:13;96242.63;;;14.98;100.00
24962;BME280;12992;50.884;13.668;2023-08-06T08:32:38;96239.94;;;15.07;100.00
24962;BME280;12992;50.884;13.668;2023-08-06T08:35:03;96244.19;;;15.13;100.00
24962;BME280;12992;50.884;13.668;2023-08-06T08:37:28;96239.91;;;15.20;100.00
24962;BME280;12992;50.884;13.668;2023-08-06T08:39:54;96233.59;;;15.20;100.00
24962;BME280;12992;50.884;13.668;2023-08-06T08:42:19;96229.53;;;15.17;100.00
24962;BME280;12992;50.884;13.668;2023-08-06T08:44:45;96233.59;;;15.20;100.00
24962;BME280;12992;50.884;13.668;2023-08-06T08:47:10;96223.25;;;15.17;100.00
24962;BME280;12992;50.884;13.668;2023-08-06T08:49:36;96219.38;;;15.18;100.00
24962;BME280;12992;50.884;13.668;2023-08-06T08:52:02;96219.38;;;15.18;100.00
24962;BME280;12992;50.884;13.668;2023-08-06T08:54:27;96218.31;;;15.27;100.00
24962;BME280;12992;50.884;13.668;2023-08-06T08:56:53;96207.03;;;15.29;100.00
24962;BME280;12992;50.884;13.668;2023-08-06T08:59:20;96218.56;;;15.40;100.00
24962;BME280;12992;50.884;13.668;2023-08-06T09:01:45;96218.72;;;15.43;100.00
24962;BME280;12992;50.884;13.668;2023-08-06T09:04:15;96211.69;;;15.51;100.00
24962;BME280;12992;50.884;13.668;2023-08-06T09:06:41;96216.00;;;15.43;100.00
24962;BME280;12992;50.884;13.668;2023-08-06T09:09:08;96211.63;;;15.42;100.00
24962;BME280;12992;50.884;13.668;2023-08-06T09:11:36;96211.19;;;15.49;100.00
24962;BME280;12992;50.884;13.668;2023-08-06T09:14:04;96212.00;;;15.49;100.00
24962;BME280;12992;50.884;13.668;2023-08-06T09:16:32;96218.13;;;15.46;100.00
24962;BME280;12992;50.884;13.668;2023-08-06T09:19:00;96213.50;;;15.55;100.00
24962;BME280;12992;50.884;13.668;2023-08-06T09:21:31;96218.34;;;15.58;100.00
24962;BME280;12992;50.884;13.668;2023-08-06T09:23:58;96218.53;;;15.62;100.00
24962;BME280;12992;50.884;13.668;2023-08-06T09:26:23;96208.00;;;15.55;100.00
24962;BME280;12992;50.884;13.668;2023-08-06T09:28:49;96205.63;;;15.63;100.00
24962;BME280;12992;50.884;13.668;2023-08-06T09:31:17;96217.50;;;15.80;100.00
24962;BME280;12992;50.884;13.668;2023-08-06T09:33:42;96218.19;;;15.86;100.00
24962;BME280;12992;50.884;13.668;2023-08-06T09:36:09;96215.56;;;15.81;100.00
24962;BME280;12992;50.884;13.668;2023-08-06T09:38:39;96206.53;;;15.80;100.00
24962;BME280;12992;50.884;13.668;2023-08-06T09:41:05;96202.69;;;15.90;100.00
24962;BME280;12992;50.884;13.668;2023-08-06T09:43:30;96201.06;;;15.89;100.00
24962;BME280;12992;50.884;13.668;2023-08-06T09:46:10;96204.16;;;15.96;100.00
24962;BME280;12992;50.884;13.668;2023-08-06T09:48:35;96204.19;;;16.05;100.00
24962;BME280;12992;50.884;13.668;2023-08-06T09:51:00;96198.72;;;16.13;100.00
24962;BME280;12992;50.884;13.668;2023-08-06T09:53:26;96187.63;;;16.19;100.00
24962;BME280;12992;50.884;13.668;2023-08-06T09:55:52;96193.91;;;16.19;100.00
24962;BME280;12992;50.884;13.668;2023-08-06T09:58:17;96186.97;;;16.22;100.00
24962;BME280;12992;50.884;13.668;2023-08-06T10:00:43;96192.34;;;16.35;100.00
24962;BME280;12992;50.884;13.668;2023-08-06T10:03:09;96182.31;;;16.39;100.00
24962;BME280;12992;50.884;13.668;2023-08-06T10:05:34;96188.28;;;16.41;100.00
24962;BME280;12992;50.884;13.668;2023-08-06T10:08:01;96179.25;;;16.41;100.00
24962;BME280;12992;50.884;13.668;2023-08-06T10:10:27;96175.06;;;16.52;100.00
24962;BME280;12992;50.884;13.668;2023-08-06T10:12:54;96174.25;;;16.60;100.00
24962;BME280;12992;50.884;13.668;2023-08-06T10:15:22;96169.59;;;16.69;100.00
24962;BME280;12992;50.884;13.668;2023-08-06T10:17:50;96171.22;;;16.70;100.00
24962;BME280;12992;50.884;13.668;2023-08-06T10:20:16;96173.47;;;16.77;100.00
24962;BME280;12992;50.884;13.668;2023-08-06T10:22:42;96174.13;;;16.91;100.00
24962;BME280;12992;50.884;13.668;2023-08-06T10:25:07;96176.06;;;17.08;100.00
24962;BME280;12992;50.884;13.668;2023-08-06T10:27:34;96175.06;;;17.21;100.00
24962;BME280;12992;50.884;13.668;2023-08-06T10:32:46;96166.25;;;17.54;100.00
24962;BME280;12992;50.884;13.668;2023-08-06T10:35:27;96161.88;;;17.53;100.00
24962;BME280;12992;50.884;13.668;2023-08-06T10:37:52;96153.34;;;17.37;100.00
24962;BME280;12992;50.884;13.668;2023-08-06T10:40:20;96155.47;;;17.32;100.00
24962;BME280;12992;50.884;13.668;2023-08-06T10:42:46;96146.19;;;17.45;100.00
24962;BME280;12992;50.884;13.668;2023-08-06T10:45:18;96145.34;;;17.62;100.00
24962;BME280;12992;50.884;13.668;2023-08-06T10:47:43;96138.69;;;17.63;100.00
24962;BME280;12992;50.884;13.668;2023-08-06T10:50:12;96139.97;;;17.65;100.00
24962;BME280;12992;50.884;13.668;2023-08-06T10:52:39;96142.38;;;17.75;100.00
24962;BME280;12992;50.884;13.668;2023-08-06T10:55:04;96137.66;;;17.85;100.00
24962;BME280;12992;50.884;13.668;2023-08-06T10:57:30;96136.31;;;17.91;100.00
24962;BME280;12992;50.884;13.668;2023-08-06T10:59:55;96128.69;;;17.96;100.00
24962;BME280;12992;50.884;13.668;2023-08-06T11:02:20;96123.91;;;18.14;100.00
24962;BME280;12992;50.884;13.668;2023-08-06T11:04:45;96118.72;;;18.13;100.00
24962;BME280;12992;50.884;13.668;2023-08-06T11:07:11;96120.84;;;18.07;100.00
24962;BME280;12992;50.884;13.668;2023-08-06T11:09:38;96111.38;;;17.96;100.00
24962;BME280;12992;50.884;13.668;2023-08-06T11:12:07;96118.53;;;17.88;100.00
24962;BME280;12992;50.884;13.668;2023-08-06T11:14:34;96113.91;;;17.71;100.00
24962;BME280;12992;50.884;13.668;2023-08-06T11:16:59;96109.69;;;17.74;100.00
24962;BME280;12992;50.884;13.668;2023-08-06T11:19:24;96101.41;;;17.74;100.00
24962;BME280;12992;50.884;13.668;2023-08-06T11:21:51;96106.28;;;17.68;100.00
24962;BME280;12992;50.884;13.668;2023-08-06T11:24:16;96100.47;;;17.61;100.00
24962;BME280;12992;50.884;13.668;2023-08-06T11:26:42;96106.66;;;17.58;100.00
24962;BME280;12992;50.884;13.668;2023-08-06T11:29:09;96108.88;;;17.65;100.00
24962;BME280;12992;50.884;13.668;2023-08-06T11:31:35;96098.34;;;17.67;100.00
24962;BME280;12992;50.884;13.668;2023-08-06T11:34:01;96098.84;;;17.69;100.00
24962;BME280;12992;50.884;13.668;2023-08-06T11:36:29;96093.50;;;17.64;100.00
24962;BME280;12992;50.884;13.668;2023-08-06T11:38:56;96094.22;;;17.52;100.00
24962;BME280;12992;50.884;13.668;2023-08-06T11:41:21;96100.66;;;17.56;100.00
24962;BME280;12992;50.884;13.668;2023-08-06T11:43:46;96103.41;;;17.56;100.00
24962;BME280;12992;50.884;13.668;2023-08-06T11:46:12;96100.97;;;17.63;100.00
24962;BME280;12992;50.884;13.668;2023-08-06T11:48:50;96095.66;;;17.58;100.00
24962;BME280;12992;50.884;13.668;2023-08-06T11:51:15;96101.41;;;17.74;100.00
24962;BME280;12992;50.884;13.668;2023-08-06T11:53:41;96090.53;;;17.86;100.00
24962;BME280;12992;50.884;13.668;2023-08-06T11:56:06;96093.22;;;17.95;100.00
24962;BME280;12992;50.884;13.668;2023-08-06T11:58:31;96092.16;;;18.08;100.00
24962;BME280;12992;50.884;13.668;2023-08-06T12:00:57;96079.28;;;18.21;100.00
24962;BME280;12992;50.884;13.668;2023-08-06T12:03:23;96088.28;;;18.51;100.00
24962;BME280;12992;50.884;13.668;2023-08-06T12:05:53;96085.41;;;18.68;100.00
24962;BME280;12992;50.884;13.668;2023-08-06T12:08:18;96090.00;;;18.97;100.00
24962;BME280;12992;50.884;13.668;2023-08-06T12:10:44;96086.03;;;19.64;100.00
24962;BME280;12992;50.884;13.668;2023-08-06T12:13:09;96071.38;;;20.13;100.00
24962;BME280;12992;50.884;13.668;2023-08-06T12:15:34;96071.13;;;20.42;100.00
24962;BME280;12992;50.884;13.668;2023-08-06T12:18:00;96061.50;;;20.24;100.00
24962;BME280;12992;50.884;13.668;2023-08-06T12:20:25;96064.91;;;20.45;100.00
24962;BME280;12992;50.884;13.668;2023-08-06T12:22:51;96070.00;;;20.43;100.00
24962;BME280;12992;50.884;13.668;2023-08-06T12:25:17;96057.53;;;20.37;100.00
24962;BME280;12992;50.884;13.668;2023-08-06T12:27:42;96058.91;;;20.31;100.00
24962;BME280;12992;50.884;13.668;2023-08-06T12:30:08;96050.88;;;20.14;100.00
24962;BME280;12992;50.884;13.668;2023-08-06T12:32:34;96064.59;;;20.10;100.00
24962;BME280;12992;50.884;13.668;2023-08-06T12:34:59;96051.69;;;20.14;100.00
24962;BME280;12992;50.884;13.668;2023-08-06T12:37:26;96048.41;;;19.84;100.00
24962;BME280;12992;50.884;13.668;2023-08-06T12:39:51;96055.53;;;19.97;100.00
24962;BME280;12992;50.884;13.668;2023-08-06T12:42:16;96048.50;;;19.88;100.00
24962;BME280;12992;50.884;13.668;2023-08-06T12:44:41;96038.94;;;19.85;100.00
24962;BME280;12992;50.884;13.668;2023-08-06T12:47:07;96045.19;;;19.82;100.00